Terminal Aerodrome Forecast
Issued by NWS Jackson, MS

Home | Current Version | Previous Version | Text Only | Print | Product List | Glossary On
Versions: 1 2 3 4 5 6 7 8 9 10 11 12 13 14 15 16 17
694
FTUS44 KMEG 181122
TAFTUP
TAF
KTUP 181122Z 1812/1912 00000KT 3/4SM BR VV004
     FM181500 21004KT 4SM BR OVC007
     FM181800 22005KT P6SM OVC009
     FM182100 23005KT P6SM BKN012
     FM190100 VRB03KT 5SM BR BKN007
     FM190600 21003KT 3SM BR OVC004=

USA.gov is the U.S. government's official web portal to all federal, state and local government web resources and services.